createdAt,value
2023-05-14T00:01:37.601Z,7.30
2023-05-14T00:04:10.132Z,9.03
2023-05-14T00:06:44.573Z,7.93
2023-05-14T00:09:16.907Z,8.83
2023-05-14T00:11:49.938Z,9.00
2023-05-14T00:14:22.541Z,9.43
2023-05-14T00:16:54.795Z,9.10
2023-05-14T00:19:27.109Z,8.40
2023-05-14T00:21:59.338Z,8.17
2023-05-14T00:24:31.590Z,8.00
2023-05-14T00:27:04.648Z,8.47
2023-05-14T00:29:37.560Z,7.97
2023-05-14T00:32:10.977Z,8.40
2023-05-14T00:34:43.259Z,8.43
2023-05-14T00:37:15.577Z,8.37
2023-05-14T00:39:48.252Z,7.93
2023-05-14T00:42:21.187Z,7.73
2023-05-14T00:44:53.739Z,7.73
2023-05-14T00:47:26.585Z,7.77
2023-05-14T00:49:59.104Z,7.67
2023-05-14T00:52:34.047Z,8.17
2023-05-14T00:55:09.772Z,7.53
2023-05-14T00:57:43.094Z,7.70
2023-05-14T01:00:17.398Z,7.77
2023-05-14T01:05:21.638Z,7.60
2023-05-14T01:08:04.574Z,8.33
2023-05-14T01:10:47.397Z,8.07
2023-05-14T01:13:28.311Z,8.10
2023-05-14T01:16:05.261Z,8.70
2023-05-14T01:18:40.724Z,8.17
2023-05-14T01:21:35.156Z,7.77
2023-05-14T01:24:09.017Z,7.25
2023-05-14T01:26:46.088Z,8.13
2023-05-14T01:29:23.288Z,7.20
2023-05-14T01:31:58.799Z,7.30
2023-05-14T01:34:34.211Z,8.03
2023-05-14T01:37:07.812Z,7.60
2023-05-14T01:39:42.489Z,8.15
2023-05-14T01:42:15.096Z,8.80
2023-05-14T01:44:48.510Z,8.57
2023-05-14T01:47:21.209Z,7.77
2023-05-14T01:49:54.349Z,8.33
2023-05-14T01:52:27.079Z,8.90
2023-05-14T01:55:00.313Z,9.10
2023-05-14T01:57:33.086Z,8.78
2023-05-14T02:00:06.832Z,9.37
2023-05-14T02:02:46.200Z,7.87
2023-05-14T02:05:21.501Z,8.60
2023-05-14T02:07:54.103Z,8.77
2023-05-14T02:10:27.297Z,9.13
2023-05-14T02:12:59.643Z,9.27
2023-05-14T02:15:32.010Z,9.10
2023-05-14T02:18:04.223Z,9.07
2023-05-14T02:20:36.476Z,9.27
2023-05-14T02:23:09.563Z,8.70
2023-05-14T02:25:42.301Z,9.60
2023-05-14T02:28:14.501Z,8.90
2023-05-14T02:30:46.925Z,9.13
2023-05-14T02:33:19.726Z,8.87
2023-05-14T02:35:52.526Z,9.25
2023-05-14T02:38:25.501Z,9.87
2023-05-14T02:40:58.986Z,8.73
2023-05-14T02:43:31.218Z,9.48
2023-05-14T02:46:03.957Z,10.00
2023-05-14T02:48:36.360Z,8.90
2023-05-14T02:51:10.128Z,9.03
2023-05-14T02:53:43.579Z,9.40
2023-05-14T02:56:15.946Z,9.53
2023-05-14T02:58:48.391Z,9.90
2023-05-14T03:01:21.885Z,9.47
2023-05-14T03:04:00.468Z,8.30
2023-05-14T03:06:32.731Z,8.80
2023-05-14T03:09:05.001Z,9.27
2023-05-14T03:11:37.873Z,8.27
2023-05-14T03:14:10.404Z,8.97
2023-05-14T03:16:44.379Z,8.63
2023-05-14T03:19:17.667Z,8.70
2023-05-14T03:21:50.484Z,9.80
2023-05-14T03:24:22.845Z,9.37
2023-05-14T03:26:56.346Z,8.67
2023-05-14T03:29:29.274Z,9.20
2023-05-14T03:32:01.473Z,9.13
2023-05-14T03:34:33.857Z,9.27
2023-05-14T03:37:06.389Z,10.60
2023-05-14T03:39:39.564Z,9.40
2023-05-14T03:42:12.054Z,9.50
2023-05-14T03:44:44.383Z,8.97
2023-05-14T03:47:17.232Z,10.40
2023-05-14T03:49:52.516Z,10.63
2023-05-14T03:54:57.754Z,9.60
2023-05-14T03:57:30.075Z,10.20
2023-05-14T04:00:02.327Z,10.33
2023-05-14T04:02:34.871Z,10.30
2023-05-14T04:05:08.002Z,9.70
2023-05-14T04:07:40.213Z,9.83
2023-05-14T04:10:14.286Z,10.70
2023-05-14T04:12:46.936Z,10.43
2023-05-14T04:15:19.661Z,10.43
2023-05-14T04:17:54.756Z,10.40
2023-05-14T04:20:27.706Z,10.87
2023-05-14T04:23:00.671Z,10.80
2023-05-14T04:25:32.997Z,10.43
2023-05-14T04:28:05.554Z,11.33
2023-05-14T04:30:38.687Z,10.67
2023-05-14T04:33:11.501Z,10.10
2023-05-14T04:35:44.763Z,11.20
2023-05-14T04:38:17.233Z,10.13
2023-05-14T04:40:49.644Z,10.43
2023-05-14T04:43:24.658Z,10.67
2023-05-14T04:45:58.336Z,10.60
2023-05-14T04:48:30.939Z,11.13
2023-05-14T04:51:05.036Z,10.00
2023-05-14T04:53:39.986Z,9.77
2023-05-14T04:56:13.228Z,10.53
2023-05-14T04:58:45.532Z,10.60
2023-05-14T05:01:17.970Z,10.27
2023-05-14T05:03:50.420Z,10.10
2023-05-14T05:06:25.077Z,8.57
2023-05-14T05:09:01.975Z,9.37
2023-05-14T05:11:35.120Z,9.67
2023-05-14T05:14:07.558Z,9.43
2023-05-14T05:16:41.068Z,8.90
2023-05-14T05:19:13.520Z,9.98
2023-05-14T05:21:45.950Z,8.53
2023-05-14T05:24:18.623Z,8.58
2023-05-14T05:26:52.525Z,8.58
2023-05-14T05:29:27.546Z,9.40
2023-05-14T05:32:00.088Z,9.17
2023-05-14T05:34:32.517Z,9.85
2023-05-14T05:37:06.262Z,8.70
2023-05-14T05:39:39.581Z,9.43
2023-05-14T05:42:12.003Z,8.57
2023-05-14T05:44:44.372Z,8.85
2023-05-14T05:47:17.370Z,9.18
2023-05-14T05:49:49.890Z,8.47
2023-05-14T05:52:22.452Z,8.78
2023-05-14T05:54:55.881Z,9.83
2023-05-14T05:57:29.978Z,9.10
2023-05-14T06:00:10.135Z,9.13
2023-05-14T06:02:45.481Z,9.20
2023-05-14T06:05:18.652Z,8.97
2023-05-14T06:07:51.155Z,8.47
2023-05-14T06:10:26.616Z,8.63
2023-05-14T06:13:00.152Z,8.70
2023-05-14T06:15:32.766Z,9.03
2023-05-14T06:18:05.379Z,7.80
2023-05-14T06:20:38.689Z,8.37
2023-05-14T06:23:12.492Z,6.40
2023-05-14T06:25:44.787Z,7.10
2023-05-14T06:28:17.271Z,7.37
2023-05-14T06:30:56.224Z,6.50
2023-05-14T06:33:31.884Z,6.23
2023-05-14T06:36:08.191Z,6.83
2023-05-14T06:38:41.649Z,6.30
2023-05-14T06:41:14.275Z,6.12
2023-05-14T06:43:46.544Z,6.90
2023-05-14T06:46:19.087Z,6.63
2023-05-14T06:48:51.432Z,5.10
2023-05-14T06:51:23.867Z,5.63
2023-05-14T06:54:04.539Z,6.03
2023-05-14T06:56:37.598Z,5.37
2023-05-14T06:59:12.865Z,5.40
2023-05-14T07:01:45.343Z,5.47
2023-05-14T07:04:22.384Z,5.60
2023-05-14T07:06:54.730Z,5.53
2023-05-14T07:09:27.268Z,5.70
2023-05-14T07:11:59.623Z,5.57
2023-05-14T07:14:32.255Z,4.57
2023-05-14T07:17:04.743Z,4.70
2023-05-14T07:19:37.688Z,4.33
2023-05-14T07:22:10.326Z,3.85
2023-05-14T07:24:45.420Z,3.97
2023-05-14T07:27:18.225Z,4.10
2023-05-14T07:29:50.802Z,4.10
2023-05-14T07:32:25.249Z,4.33
2023-05-14T07:34:57.743Z,4.03
2023-05-14T07:37:30.126Z,3.80
2023-05-14T07:40:08.200Z,4.03
2023-05-14T07:42:41.117Z,3.37
2023-05-14T07:45:14.013Z,3.17
2023-05-14T07:47:46.321Z,3.17
2023-05-14T07:50:19.676Z,3.17
2023-05-14T07:52:51.941Z,3.05
2023-05-14T07:55:24.850Z,2.50
2023-05-14T07:57:57.210Z,3.00
2023-05-14T08:00:30.746Z,2.70
2023-05-14T08:03:03.188Z,2.67
2023-05-14T08:05:35.587Z,2.60
2023-05-14T08:08:08.546Z,2.50
2023-05-14T08:10:42.296Z,2.20
2023-05-14T08:15:45.288Z,2.80
2023-05-14T08:18:18.389Z,3.23
2023-05-14T08:20:51.478Z,2.35
2023-05-14T08:23:23.853Z,2.77
2023-05-14T08:25:56.120Z,3.00
2023-05-14T08:28:28.798Z,2.87
2023-05-14T08:31:01.262Z,3.07
2023-05-14T08:33:33.590Z,2.90
2023-05-14T08:36:08.865Z,2.77
2023-05-14T08:38:44.436Z,2.90
2023-05-14T08:41:22.953Z,2.87
2023-05-14T08:44:10.255Z,2.83
2023-05-14T08:46:45.654Z,2.40
2023-05-14T08:49:34.122Z,3.50
2023-05-14T08:52:08.222Z,2.93
2023-05-14T08:54:41.350Z,2.30
2023-05-14T08:57:14.486Z,3.10
2023-05-14T08:59:47.450Z,2.55
2023-05-14T09:02:22.218Z,2.37
2023-05-14T09:04:59.218Z,2.10
2023-05-14T09:07:31.535Z,3.33
2023-05-14T09:10:04.231Z,2.63
2023-05-14T09:12:37.419Z,3.10
2023-05-14T09:15:11.722Z,2.50
2023-05-14T09:17:44.524Z,2.47
2023-05-14T09:20:18.041Z,2.20
2023-05-14T09:25:21.122Z,2.13
2023-05-14T09:27:55.693Z,2.13
2023-05-14T09:30:30.267Z,2.27
2023-05-14T09:33:04.304Z,2.10
2023-05-14T09:35:39.426Z,2.33
2023-05-14T09:38:12.405Z,2.30
2023-05-14T09:40:44.663Z,2.30
2023-05-14T09:43:16.944Z,2.43
2023-05-14T09:45:49.362Z,1.80
2023-05-14T09:48:22.596Z,2.57
2023-05-14T09:50:54.939Z,2.10
2023-05-14T09:53:27.682Z,2.03
2023-05-14T09:56:00.180Z,2.67
2023-05-14T09:58:32.689Z,2.35
2023-05-14T10:01:06.322Z,2.17
2023-05-14T10:03:40.674Z,2.60
2023-05-14T10:06:15.114Z,2.20
2023-05-14T10:08:49.928Z,2.47
2023-05-14T10:11:26.557Z,2.17
2023-05-14T10:14:10.911Z,2.33
2023-05-14T10:16:48.342Z,2.23
2023-05-14T10:19:22.470Z,2.03
2023-05-14T10:22:01.116Z,2.40
2023-05-14T10:24:34.363Z,2.37
2023-05-14T10:29:39.893Z,2.20
2023-05-14T10:32:13.552Z,2.30
2023-05-14T10:34:46.513Z,2.43
2023-05-14T10:37:21.118Z,2.40
2023-05-14T10:39:55.587Z,2.70
2023-05-14T10:42:30.057Z,2.70
2023-05-14T10:45:06.007Z,2.47
2023-05-14T10:47:40.284Z,2.60
2023-05-14T10:50:15.334Z,2.33
2023-05-14T10:52:48.252Z,2.30
2023-05-14T10:55:20.497Z,2.30
2023-05-14T10:57:53.689Z,2.70
2023-05-14T11:03:01.783Z,2.20
2023-05-14T11:05:39.432Z,2.40
2023-05-14T11:08:13.147Z,1.80
2023-05-14T11:10:47.279Z,2.80
2023-05-14T11:13:20.368Z,2.50
2023-05-14T11:15:53.484Z,2.73
2023-05-14T11:21:03.802Z,2.30
2023-05-14T11:23:36.081Z,2.20
2023-05-14T11:26:09.013Z,2.10
2023-05-14T11:28:42.462Z,1.90
2023-05-14T11:31:15.696Z,2.13
2023-05-14T11:33:47.994Z,2.10
2023-05-14T11:36:20.289Z,2.25
2023-05-14T11:38:52.847Z,2.10
2023-05-14T11:41:28.255Z,2.45
2023-05-14T11:44:01.102Z,2.10
2023-05-14T11:46:33.456Z,2.17
2023-05-14T11:49:09.546Z,1.90
2023-05-14T11:51:41.953Z,2.00
2023-05-14T11:54:16.945Z,1.90
2023-05-14T11:56:54.085Z,2.00
2023-05-14T11:59:27.250Z,1.90
2023-05-14T12:01:59.861Z,2.00
2023-05-14T12:04:32.570Z,1.90
2023-05-14T12:07:11.813Z,2.05
2023-05-14T12:09:49.619Z,2.33
2023-05-14T12:12:23.831Z,2.00
2023-05-14T12:14:56.199Z,2.10
2023-05-14T12:17:28.564Z,1.80
2023-05-14T12:20:01.771Z,2.03
2023-05-14T12:25:05.196Z,2.13
2023-05-14T12:27:40.823Z,1.80
2023-05-14T12:32:53.128Z,2.40
2023-05-14T12:35:25.882Z,2.55
2023-05-14T12:37:58.323Z,2.00
2023-05-14T12:40:30.639Z,2.20
2023-05-14T12:43:04.394Z,1.73
2023-05-14T12:45:36.640Z,2.00
2023-05-14T12:48:09.860Z,1.95
2023-05-14T12:50:42.273Z,1.85
2023-05-14T12:53:16.543Z,1.90
2023-05-14T12:55:49.852Z,2.27
2023-05-14T12:58:22.215Z,2.17
2023-05-14T13:00:54.857Z,2.20
2023-05-14T13:03:27.951Z,3.50
2023-05-14T13:06:00.487Z,2.60
2023-05-14T13:08:32.797Z,2.17
2023-05-14T13:11:05.051Z,2.30
2023-05-14T13:13:39.542Z,2.90
2023-05-14T13:16:17.049Z,3.10
2023-05-14T13:18:49.693Z,2.17
2023-05-14T13:21:22.756Z,2.60
2023-05-14T13:23:55.112Z,2.87
2023-05-14T13:26:28.471Z,3.77
2023-05-14T13:29:01.241Z,2.60
2023-05-14T13:31:34.065Z,1.90
2023-05-14T13:34:08.325Z,1.90
2023-05-14T13:36:40.949Z,1.85
2023-05-14T13:39:14.437Z,1.90
2023-05-14T13:41:47.023Z,2.23
2023-05-14T13:44:19.509Z,1.87
2023-05-14T13:46:51.917Z,2.53
2023-05-14T13:49:24.375Z,1.80
2023-05-14T13:51:56.605Z,2.07
2023-05-14T13:54:28.926Z,2.10
2023-05-14T13:57:01.222Z,2.53
2023-05-14T13:59:33.635Z,2.00
2023-05-14T14:02:07.225Z,2.30
2023-05-14T14:04:40.295Z,2.00
2023-05-14T14:07:12.646Z,2.27
2023-05-14T14:09:45.376Z,1.97
2023-05-14T14:12:17.754Z,2.37
2023-05-14T14:14:51.131Z,1.75
2023-05-14T14:17:25.387Z,2.13
2023-05-14T14:19:57.839Z,2.50
2023-05-14T14:22:30.200Z,2.20
2023-05-14T14:25:02.877Z,2.20
2023-05-14T14:27:39.679Z,1.90
2023-05-14T14:30:16.842Z,2.30
2023-05-14T14:32:50.002Z,2.33
2023-05-14T14:35:23.218Z,2.15
2023-05-14T14:37:55.942Z,2.12
2023-05-14T14:40:28.476Z,2.10
2023-05-14T14:43:02.571Z,2.33
2023-05-14T14:45:35.027Z,2.20
2023-05-14T14:48:25.264Z,1.93
2023-05-14T14:50:58.972Z,2.43
2023-05-14T14:53:41.552Z,2.87
2023-05-14T14:56:14.965Z,2.20
2023-05-14T14:58:47.337Z,2.10
2023-05-14T15:01:19.875Z,2.07
2023-05-14T15:03:52.774Z,2.37
2023-05-14T15:06:25.091Z,2.20
2023-05-14T15:08:57.656Z,1.97
2023-05-14T15:11:30.654Z,2.00
2023-05-14T15:14:08.171Z,2.22
2023-05-14T15:16:44.701Z,2.27
2023-05-14T15:19:17.345Z,1.80
2023-05-14T15:21:50.428Z,2.10
2023-05-14T15:24:24.187Z,2.15
2023-05-14T15:26:56.670Z,2.27
2023-05-14T15:29:29.101Z,2.17
2023-05-14T15:32:06.812Z,2.47
2023-05-14T15:34:44.682Z,2.20
2023-05-14T15:37:17.119Z,2.27
2023-05-14T15:39:49.599Z,2.40
2023-05-14T15:42:22.280Z,2.53
2023-05-14T15:44:54.634Z,1.93
2023-05-14T15:47:27.441Z,2.33
2023-05-14T15:50:00.080Z,2.37
2023-05-14T15:52:33.826Z,2.20
2023-05-14T15:57:40.642Z,2.40
2023-05-14T16:00:15.097Z,2.10
2023-05-14T16:02:47.638Z,2.00
2023-05-14T16:05:20.405Z,2.37
2023-05-14T16:07:53.129Z,2.23
2023-05-14T16:10:26.206Z,2.23
2023-05-14T16:12:58.752Z,2.58
2023-05-14T16:15:31.312Z,2.57
2023-05-14T16:18:04.323Z,2.43
2023-05-14T16:20:36.584Z,2.10
2023-05-14T16:23:09.109Z,2.30
2023-05-14T16:25:44.034Z,2.13
2023-05-14T16:28:16.753Z,2.10
2023-05-14T16:30:49.286Z,2.47
2023-05-14T16:33:21.467Z,2.50
2023-05-14T16:35:54.285Z,4.07
2023-05-14T16:38:27.006Z,2.42
2023-05-14T16:40:59.324Z,2.00
2023-05-14T16:43:31.489Z,1.80
2023-05-14T16:46:03.933Z,2.00
2023-05-14T16:48:36.245Z,1.93
2023-05-14T16:51:10.831Z,2.03
2023-05-14T16:53:43.360Z,2.30
2023-05-14T16:56:16.017Z,2.27
2023-05-14T16:58:48.296Z,1.63
2023-05-14T17:01:20.646Z,2.00
2023-05-14T17:03:54.627Z,2.07
2023-05-14T17:06:27.847Z,2.00
2023-05-14T17:09:00.234Z,1.90
2023-05-14T17:11:33.068Z,1.70
2023-05-14T17:14:04.149Z,2.47
2023-05-14T17:16:42.466Z,2.47
2023-05-14T17:19:13.783Z,2.20
2023-05-14T17:21:46.189Z,2.10
2023-05-14T17:24:18.627Z,2.00
2023-05-14T17:26:50.961Z,2.03
2023-05-14T17:29:23.451Z,2.35
2023-05-14T17:31:56.107Z,1.83
2023-05-14T17:34:28.676Z,1.70
2023-05-14T17:37:01.144Z,1.87
2023-05-14T17:39:33.390Z,1.80
2023-05-14T17:42:06.420Z,1.90
2023-05-14T17:44:41.606Z,1.97
2023-05-14T17:47:14.020Z,1.93
2023-05-14T17:49:46.578Z,2.10
2023-05-14T17:52:19.334Z,2.07
2023-05-14T17:54:51.721Z,2.53
2023-05-14T17:57:24.255Z,2.20
2023-05-14T17:59:56.635Z,2.27
2023-05-14T18:02:29.271Z,2.20
2023-05-14T18:05:03.483Z,2.07
2023-05-14T18:07:36.577Z,2.37
2023-05-14T18:10:11.650Z,2.53
2023-05-14T18:12:46.424Z,2.47
2023-05-14T18:15:20.326Z,1.93
2023-05-14T18:21:17.800Z,2.05
2023-05-14T18:23:50.239Z,2.95
2023-05-14T18:26:23.429Z,2.30
2023-05-14T18:28:55.945Z,2.50
2023-05-14T18:31:28.979Z,2.57
2023-05-14T18:34:02.026Z,2.65
2023-05-14T18:36:34.664Z,2.40
2023-05-14T18:39:06.991Z,2.40
2023-05-14T18:41:45.415Z,2.57
2023-05-14T18:44:17.965Z,3.27
2023-05-14T18:46:50.545Z,2.70
2023-05-14T18:49:22.936Z,2.80
2023-05-14T18:51:55.246Z,2.87
2023-05-14T18:54:27.635Z,2.53
2023-05-14T18:57:00.344Z,3.07
2023-05-14T18:59:32.729Z,2.95
2023-05-14T19:02:05.202Z,2.50
2023-05-14T19:04:50.771Z,2.50
2023-05-14T19:07:24.862Z,2.73
2023-05-14T19:10:10.065Z,2.85
2023-05-14T19:12:44.828Z,2.40
2023-05-14T19:15:17.307Z,2.83
2023-05-14T19:17:49.675Z,2.73
2023-05-14T19:20:22.515Z,2.73
2023-05-14T19:22:55.350Z,2.80
2023-05-14T19:25:28.017Z,2.87
2023-05-14T19:28:01.746Z,2.90
2023-05-14T19:30:34.131Z,2.80
2023-05-14T19:33:06.674Z,2.87
2023-05-14T19:35:39.387Z,3.30
2023-05-14T19:38:11.934Z,2.83
2023-05-14T19:40:45.704Z,2.87
2023-05-14T19:43:17.986Z,3.45
2023-05-14T19:45:50.829Z,3.00
2023-05-14T19:48:23.171Z,3.20
2023-05-14T19:50:55.902Z,2.90
2023-05-14T19:53:30.952Z,2.95
2023-05-14T19:56:03.815Z,3.13
2023-05-14T19:58:36.480Z,2.87
2023-05-14T20:01:09.756Z,3.20
2023-05-14T20:03:42.552Z,3.63
2023-05-14T20:06:15.149Z,3.30
2023-05-14T20:08:47.672Z,3.83
2023-05-14T20:11:20.091Z,4.67
2023-05-14T20:13:52.349Z,4.47
2023-05-14T20:16:27.905Z,4.10
2023-05-14T20:19:01.593Z,3.80
2023-05-14T20:21:34.997Z,4.35
2023-05-14T20:24:07.932Z,4.15
2023-05-14T20:26:42.819Z,4.50
2023-05-14T20:29:15.803Z,4.20
2023-05-14T20:31:48.206Z,4.00
2023-05-14T20:34:20.475Z,4.00
2023-05-14T20:36:53.258Z,3.63
2023-05-14T20:39:27.871Z,4.00
2023-05-14T20:42:02.967Z,3.77
2023-05-14T20:44:35.776Z,3.67
2023-05-14T20:47:09.325Z,4.03
2023-05-14T20:49:42.724Z,5.60
2023-05-14T20:52:15.387Z,5.40
2023-05-14T20:54:47.688Z,6.07
2023-05-14T20:57:20.709Z,5.17
2023-05-14T20:59:53.090Z,5.60
2023-05-14T21:02:25.694Z,4.90
2023-05-14T21:05:04.623Z,4.37
2023-05-14T21:07:38.106Z,3.97
2023-05-14T21:10:12.423Z,4.20
2023-05-14T21:12:45.165Z,3.30
2023-05-14T21:15:17.455Z,3.73
2023-05-14T21:17:49.859Z,3.60
2023-05-14T21:20:22.432Z,3.83
2023-05-14T21:22:54.856Z,3.00
2023-05-14T21:25:27.996Z,3.53
2023-05-14T21:28:00.542Z,3.60
2023-05-14T21:30:34.430Z,3.10
2023-05-14T21:33:07.173Z,3.60
2023-05-14T21:35:39.631Z,3.00
2023-05-14T21:38:12.053Z,4.00
2023-05-14T21:40:44.284Z,3.77
2023-05-14T21:43:16.660Z,3.50
2023-05-14T21:45:49.440Z,3.15
2023-05-14T21:48:23.026Z,4.20
2023-05-14T21:50:56.135Z,4.00
2023-05-14T21:53:28.707Z,3.37
2023-05-14T21:56:03.944Z,4.20
2023-05-14T21:58:36.651Z,3.20
2023-05-14T22:01:11.792Z,3.63
2023-05-14T22:03:45.337Z,4.07
2023-05-14T22:06:20.087Z,4.30
2023-05-14T22:08:52.349Z,3.90
2023-05-14T22:11:24.716Z,3.93
2023-05-14T22:13:56.914Z,3.50
2023-05-14T22:16:29.624Z,3.73
2023-05-14T22:19:06.459Z,4.03
2023-05-14T22:21:41.575Z,3.97
2023-05-14T22:24:14.019Z,3.60
2023-05-14T22:26:46.603Z,3.03
2023-05-14T22:29:18.917Z,3.83
2023-05-14T22:31:51.478Z,3.80
2023-05-14T22:34:23.879Z,3.37
2023-05-14T22:36:56.281Z,3.67
2023-05-14T22:39:28.779Z,4.20
2023-05-14T22:42:01.832Z,3.57
2023-05-14T22:44:36.012Z,3.30
2023-05-14T22:47:09.817Z,3.70
2023-05-14T22:49:43.785Z,3.93
2023-05-14T22:54:47.189Z,3.23
2023-05-14T22:57:19.527Z,3.70
2023-05-14T22:59:52.188Z,3.63
2023-05-14T23:02:24.748Z,3.67
2023-05-14T23:04:57.989Z,3.50
2023-05-14T23:07:30.487Z,3.67
2023-05-14T23:10:02.806Z,3.57
2023-05-14T23:12:35.185Z,3.17
2023-05-14T23:15:09.412Z,3.23
2023-05-14T23:20:15.586Z,3.03
2023-05-14T23:22:48.622Z,3.40
2023-05-14T23:25:21.335Z,3.00
2023-05-14T23:27:53.675Z,3.20
2023-05-14T23:30:26.362Z,3.23
2023-05-14T23:32:58.702Z,3.63
2023-05-14T23:35:31.363Z,3.50
2023-05-14T23:38:05.172Z,3.30
2023-05-14T23:40:37.390Z,2.75
2023-05-14T23:43:10.861Z,3.33
2023-05-14T23:45:45.049Z,3.43
2023-05-14T23:48:17.521Z,3.10
2023-05-14T23:50:49.812Z,3.43
2023-05-14T23:53:22.310Z,3.13
2023-05-14T23:55:55.238Z,3.50
2023-05-14T23:58:27.561Z,3.60
